Terminal Aerodrome Forecast
Issued by NWS

Home | Current Version | Previous Version | Text Only | Print | Product List | Glossary On
Versions: 1 2 3 4 5 6 7 8 9 10 11 12 13 14 15 16 17 18
879
FTUS46 KSEW 181121
TAFHQM
TAF
KHQM 181121Z 1812/1912 16018G28KT 4SM -RA BR SCT010 OVC020
     FM182000 16014KT 5SM -SHRA BR BKN015 OVC030
     FM190300 15010KT P6SM -SHRA BKN025 OVC050=

USA.gov is the U.S. government's official web portal to all federal, state and local government web resources and services.